Terminal Aerodrome Forecast
Issued by NWS

Current Version | Previous Version | Graphics & Text | Print | Product List | Glossary On
Versions: 1 2 3 4 5 6 7 8 9 10 11 12 13 14 15 16 17 18 19 20 21 22 23 24 25
000
FTUS41 KILN 212000 AAA
TAFLCK
TAF AMD
KLCK 212009Z 2120/2218 23008KT P6SM -SHRA OVC012
      TEMPO 2120/2121 5SM -SHRA BKN009
     FM212300 21004KT P6SM BKN080
     FM220400 21003KT P6SM -SHRA VCTS BKN050CB
     FM220800 VRB02KT P6SM VCTS BKN040CB
     FM221200 20004KT P6SM BKN040=

USA.gov is the U.S. government's official web portal to all federal, state and local government web resources and services.